createdAt,value
2018-07-31T00:00:07.177Z,23.58
2018-07-31T00:01:07.726Z,23.46
2018-07-31T00:02:07.743Z,23.47
2018-07-31T00:03:22.472Z,23.43
2018-07-31T00:04:07.536Z,23.42
2018-07-31T00:05:07.821Z,23.39
2018-07-31T00:06:07.593Z,23.32
2018-07-31T00:07:07.876Z,23.23
2018-07-31T00:08:07.642Z,23.28
2018-07-31T00:09:07.667Z,23.28
2018-07-31T00:10:07.693Z,23.2
2018-07-31T00:11:22.636Z,23.16
2018-07-31T00:12:07.999Z,23.1
2018-07-31T00:13:08.038Z,23.15
2018-07-31T00:14:08.057Z,23.13
2018-07-31T00:16:07.848Z,23
2018-07-31T00:17:07.873Z,23.01
2018-07-31T00:18:08.157Z,22.95
2018-07-31T00:19:08.178Z,23.02
2018-07-31T00:20:08.220Z,22.95
2018-07-31T00:21:22.896Z,22.94
2018-07-31T00:22:08.260Z,22.92
2018-07-31T00:23:08.282Z,22.9
2018-07-31T00:24:08.309Z,22.91
2018-07-31T00:25:08.080Z,22.85
2018-07-31T00:26:08.361Z,22.8
2018-07-31T00:27:23.055Z,22.8
2018-07-31T00:28:08.164Z,22.8
2018-07-31T00:29:08.450Z,22.77
2018-07-31T00:32:08.260Z,22.7
2018-07-31T00:33:08.542Z,22.68
2018-07-31T00:34:08.312Z,22.72
2018-07-31T00:35:08.600Z,22.61
2018-07-31T00:36:08.369Z,22.6
2018-07-31T00:37:23.309Z,22.57
2018-07-31T00:38:23.075Z,22.52
2018-07-31T00:39:08.452Z,22.62
2018-07-31T00:40:08.724Z,22.49
2018-07-31T00:41:08.491Z,22.46
2018-07-31T00:42:23.435Z,22.47
2018-07-31T00:43:08.797Z,22.46
2018-07-31T00:44:08.312Z,22.43
2018-07-31T00:45:08.851Z,22.45
2018-07-31T00:46:08.885Z,22.42
2018-07-31T00:47:08.648Z,22.43
2018-07-31T00:48:08.937Z,22.37
2018-07-31T00:49:08.744Z,22.36
2018-07-31T00:50:08.725Z,22.43
2018-07-31T00:51:23.667Z,22.4
2018-07-31T00:52:23.695Z,22.43
2018-07-31T00:53:09.059Z,22.31
2018-07-31T00:54:09.083Z,22.33
2018-07-31T00:55:08.850Z,22.33
2018-07-31T00:56:09.130Z,22.27
2018-07-31T00:57:08.905Z,22.2
2018-07-31T00:58:08.929Z,22.06
2018-07-31T00:59:09.220Z,22.18
2018-07-31T01:00:09.235Z,22.05
2018-07-31T01:01:09.257Z,22.15
2018-07-31T01:02:09.288Z,22.14
2018-07-31T01:04:09.338Z,22.15
2018-07-31T01:05:09.364Z,22.09
2018-07-31T01:06:09.384Z,22
2018-07-31T01:07:24.076Z,22.17
2018-07-31T01:08:09.441Z,22.15
2018-07-31T01:09:09.466Z,22.18
2018-07-31T01:10:09.238Z,22.1
2018-07-31T01:11:09.673Z,22.05
2018-07-31T01:12:09.540Z,22.14
2018-07-31T01:13:09.566Z,22.09
2018-07-31T01:14:23.997Z,22.09
2018-07-31T01:15:09.619Z,22.1
2018-07-31T01:16:09.641Z,22.14
2018-07-31T01:17:09.664Z,22
2018-07-31T01:20:09.749Z,22.05
2018-07-31T01:21:09.768Z,22.05
2018-07-31T01:22:09.537Z,22.06
2018-07-31T01:23:09.822Z,22.03
2018-07-31T01:24:09.843Z,22.02
2018-07-31T01:25:09.622Z,22.05
2018-07-31T01:26:09.900Z,22.02
2018-07-31T01:27:09.666Z,21.99
2018-07-31T01:28:09.951Z,22.02
2018-07-31T01:29:09.975Z,22.03
2018-07-31T01:30:24.658Z,21.91
2018-07-31T01:31:09.769Z,21.94
2018-07-31T01:33:10.077Z,22.03
2018-07-31T01:35:10.128Z,21.96
2018-07-31T01:36:24.817Z,21.9
2018-07-31T01:37:10.176Z,21.96
2018-07-31T01:38:24.865Z,21.82
2018-07-31T01:39:10.224Z,21.94
2018-07-31T01:40:10.251Z,21.88
2018-07-31T01:41:10.278Z,21.86
2018-07-31T01:42:10.309Z,21.84
2018-07-31T01:43:10.075Z,21.83
2018-07-31T01:45:10.122Z,21.91
2018-07-31T01:46:24.808Z,21.91
2018-07-31T01:48:10.453Z,21.79
2018-07-31T01:49:10.222Z,21.68
2018-07-31T01:50:10.248Z,21.68
2018-07-31T01:52:10.300Z,21.8
2018-07-31T01:53:10.580Z,21.71
2018-07-31T01:54:10.605Z,21.75
2018-07-31T01:55:25.295Z,21.77
2018-07-31T01:56:25.064Z,21.86
2018-07-31T01:57:10.430Z,21.82
2018-07-31T01:58:10.451Z,21.83
2018-07-31T01:59:10.738Z,21.82
2018-07-31T02:00:10.759Z,21.82
2018-07-31T02:01:10.787Z,21.86
2018-07-31T02:02:25.470Z,21.75
2018-07-31T02:04:10.860Z,21.75
2018-07-31T02:05:10.887Z,21.75
2018-07-31T02:06:10.978Z,21.69
2018-07-31T02:07:10.679Z,21.69
2018-07-31T02:08:10.710Z,21.67
2018-07-31T02:09:10.731Z,21.65
2018-07-31T02:10:25.676Z,21.59
2018-07-31T02:11:11.035Z,21.64
2018-07-31T02:12:25.725Z,21.54
2018-07-31T02:13:25.494Z,21.58
2018-07-31T02:14:11.113Z,21.59
2018-07-31T02:15:11.244Z,21.49
2018-07-31T02:16:11.167Z,21.62
2018-07-31T02:17:25.647Z,21.53
2018-07-31T02:18:11.215Z,21.42
2018-07-31T02:19:10.982Z,21.37
2018-07-31T02:20:10.750Z,21.38
2018-07-31T02:21:11.289Z,21.43
2018-07-31T02:22:11.318Z,21.44
2018-07-31T02:24:11.374Z,21.27
2018-07-31T02:25:11.394Z,21.28
2018-07-31T02:26:11.414Z,21.37
2018-07-31T02:27:11.441Z,21.37
2018-07-31T02:28:11.831Z,21.32
2018-07-31T02:29:11.236Z,21.38
2018-07-31T02:30:11.264Z,21.34
2018-07-31T02:31:11.544Z,21.32
2018-07-31T02:32:11.574Z,21.38
2018-07-31T02:33:11.600Z,21.32
2018-07-31T02:34:11.363Z,21.42
2018-07-31T02:35:11.390Z,21.37
2018-07-31T02:36:11.671Z,21.25
2018-07-31T02:37:11.437Z,21.37
2018-07-31T02:38:11.461Z,21.42
2018-07-31T02:39:11.756Z,21.32
2018-07-31T02:40:11.770Z,21.25
2018-07-31T02:41:11.802Z,21.28
2018-07-31T02:42:11.824Z,21.25
2018-07-31T02:43:26.256Z,21.19
2018-07-31T02:44:26.532Z,21.13
2018-07-31T02:45:11.636Z,21.21
2018-07-31T02:46:11.665Z,21.06
2018-07-31T02:48:11.978Z,21.12
2018-07-31T02:49:26.675Z,20.98
2018-07-31T02:50:12.020Z,20.94
2018-07-31T02:51:12.052Z,21.01
2018-07-31T02:52:12.084Z,21.03
2018-07-31T02:53:12.100Z,20.94
2018-07-31T02:54:11.867Z,20.79
2018-07-31T02:55:12.149Z,20.88
2018-07-31T02:56:11.912Z,20.87
2018-07-31T02:57:12.195Z,20.85
2018-07-31T02:58:12.142Z,20.92
2018-07-31T02:59:12.259Z,20.82
2018-07-31T03:00:12.275Z,20.84
2018-07-31T03:01:12.297Z,20.84
2018-07-31T03:03:12.090Z,20.8
2018-07-31T03:04:12.370Z,20.8
2018-07-31T03:05:27.059Z,20.85
2018-07-31T03:06:12.164Z,20.82
2018-07-31T03:07:12.193Z,20.72
2018-07-31T03:08:12.647Z,20.77
2018-07-31T03:10:12.521Z,20.62
2018-07-31T03:11:12.544Z,20.7
2018-07-31T03:12:12.318Z,20.72
2018-07-31T03:13:12.597Z,20.66
2018-07-31T03:14:12.625Z,20.69
2018-07-31T03:15:27.052Z,20.67
2018-07-31T03:16:12.686Z,20.7
2018-07-31T03:17:12.443Z,20.73
2018-07-31T03:18:12.721Z,20.67
2018-07-31T03:19:12.751Z,20.64
2018-07-31T03:20:12.778Z,20.61
2018-07-31T03:21:27.457Z,20.73
2018-07-31T03:22:12.826Z,20.61
2018-07-31T03:23:12.852Z,20.67
2018-07-31T03:24:12.613Z,20.66
2018-07-31T03:26:12.920Z,20.67
2018-07-31T03:27:27.353Z,20.74
2018-07-31T03:28:13.072Z,20.73
2018-07-31T03:29:12.738Z,20.72
2018-07-31T03:30:12.512Z,20.66
2018-07-31T03:31:13.052Z,20.72
2018-07-31T03:32:13.083Z,20.73
2018-07-31T03:33:13.095Z,20.64
2018-07-31T03:34:13.127Z,20.76
2018-07-31T03:35:13.144Z,20.72
2018-07-31T03:36:13.167Z,20.7
2018-07-31T03:37:27.858Z,20.67
2018-07-31T03:38:13.217Z,20.64
2018-07-31T03:39:12.987Z,20.66
2018-07-31T03:40:13.271Z,20.59
2018-07-31T03:41:12.778Z,20.64
2018-07-31T03:42:13.321Z,20.64
2018-07-31T03:43:13.090Z,20.77
2018-07-31T03:44:13.111Z,20.64
2018-07-31T03:45:13.394Z,20.62
2018-07-31T03:46:13.164Z,20.59
2018-07-31T03:47:28.103Z,20.62
2018-07-31T03:48:13.475Z,20.59
2018-07-31T03:49:13.237Z,20.66
2018-07-31T03:50:13.009Z,20.64
2018-07-31T03:51:13.028Z,20.7
2018-07-31T03:52:28.234Z,20.69
2018-07-31T03:53:13.334Z,20.73
2018-07-31T03:54:13.615Z,20.72
2018-07-31T03:55:13.654Z,20.84
2018-07-31T03:56:13.714Z,20.77
2018-07-31T03:57:13.435Z,20.79
2018-07-31T03:58:13.464Z,20.85
2018-07-31T03:59:13.743Z,20.84
2018-07-31T04:00:13.769Z,20.89
2018-07-31T04:01:13.896Z,20.89
2018-07-31T04:02:13.814Z,20.94
2018-07-31T04:03:13.586Z,20.94
2018-07-31T04:04:13.613Z,20.99
2018-07-31T04:05:13.634Z,20.98
2018-07-31T04:06:14.021Z,21.06
2018-07-31T04:07:13.686Z,20.98
2018-07-31T04:08:13.976Z,21.06
2018-07-31T04:09:13.736Z,21.07
2018-07-31T04:10:14.017Z,21.13
2018-07-31T04:12:14.071Z,21.19
2018-07-31T04:13:13.876Z,21.19
2018-07-31T04:14:14.116Z,21.22
2018-07-31T04:15:14.143Z,21.25
2018-07-31T04:16:14.166Z,21.31
2018-07-31T04:18:13.959Z,21.4
2018-07-31T04:19:14.247Z,21.35
2018-07-31T04:20:28.926Z,21.4
2018-07-31T04:21:14.039Z,21.4
2018-07-31T04:22:14.337Z,21.49
2018-07-31T04:23:14.341Z,21.5
2018-07-31T04:24:28.771Z,21.5
2018-07-31T04:25:14.403Z,21.65
2018-07-31T04:26:13.901Z,21.58
2018-07-31T04:27:14.447Z,21.71
2018-07-31T04:28:14.209Z,21.74
2018-07-31T04:29:14.494Z,21.75
2018-07-31T04:30:14.484Z,21.71
2018-07-31T04:31:14.541Z,21.74
2018-07-31T04:32:14.308Z,21.82
2018-07-31T04:33:29.255Z,21.8
2018-07-31T04:34:14.618Z,21.8
2018-07-31T04:35:29.048Z,21.9
2018-07-31T04:36:29.507Z,21.84
2018-07-31T04:37:14.700Z,21.98
2018-07-31T04:38:14.721Z,21.94
2018-07-31T04:39:14.746Z,22.06
2018-07-31T04:40:29.432Z,22.06
2018-07-31T04:41:14.971Z,22.14
2018-07-31T04:42:14.577Z,22.06
2018-07-31T04:43:14.850Z,22.12
2018-07-31T04:44:14.880Z,22.22
2018-07-31T04:45:14.642Z,22.15
2018-07-31T04:47:14.946Z,22.39
2018-07-31T04:48:14.969Z,22.31
2018-07-31T04:49:14.734Z,22.35
2018-07-31T04:50:15.208Z,22.45
2018-07-31T04:51:15.056Z,22.4
2018-07-31T04:52:15.069Z,22.52
2018-07-31T04:53:15.096Z,22.55
2018-07-31T04:55:15.147Z,22.7
2018-07-31T04:56:29.832Z,23.16
2018-07-31T04:57:15.201Z,23.73
2018-07-31T04:58:14.968Z,24.55
2018-07-31T04:59:15.249Z,25.33
2018-07-31T05:00:15.014Z,26.01
2018-07-31T05:01:15.047Z,26.69
2018-07-31T05:02:15.068Z,27.07
2018-07-31T05:03:15.095Z,27.59
2018-07-31T05:04:15.388Z,28.25
2018-07-31T05:05:15.408Z,28.48
2018-07-31T05:06:15.179Z,28.92
2018-07-31T05:07:15.459Z,29.27
2018-07-31T05:08:15.490Z,29.6
2018-07-31T05:09:15.263Z,30.16
2018-07-31T05:10:15.551Z,30.35
2018-07-31T05:11:15.800Z,30.79
2018-07-31T05:12:30.274Z,31.02
2018-07-31T05:13:15.647Z,31.14
2018-07-31T05:14:15.676Z,31.57
2018-07-31T05:15:15.181Z,31.85
2018-07-31T05:16:15.725Z,32.03
2018-07-31T05:17:15.510Z,32.28
2018-07-31T05:18:15.937Z,32.3
2018-07-31T05:19:15.816Z,32.38
2018-07-31T05:20:15.594Z,32.44
2018-07-31T05:21:15.909Z,32.85
2018-07-31T05:22:30.578Z,33.04
2018-07-31T05:23:15.946Z,33.19
2018-07-31T05:24:15.977Z,33.6
2018-07-31T05:25:16.181Z,33.94
2018-07-31T05:26:15.786Z,34.03
2018-07-31T05:27:30.743Z,34.21
2018-07-31T05:28:16.108Z,33.84
2018-07-31T05:29:16.140Z,34.1
2018-07-31T05:30:16.177Z,34.47
2018-07-31T05:32:16.246Z,34.92
2018-07-31T05:33:16.274Z,34.42
2018-07-31T05:34:16.314Z,34.4
2018-07-31T05:35:16.089Z,34.84
2018-07-31T05:36:16.118Z,35
2018-07-31T05:37:30.818Z,35.28
2018-07-31T05:38:16.189Z,35.25
2018-07-31T05:39:16.482Z,35.19
2018-07-31T05:40:16.620Z,35.22
2018-07-31T05:41:16.550Z,34.99
2018-07-31T05:42:16.588Z,34.97
2018-07-31T05:43:16.617Z,35.45
2018-07-31T05:44:16.652Z,35.23
2018-07-31T05:45:16.687Z,35.23
2018-07-31T05:47:16.757Z,35.72
2018-07-31T05:48:31.462Z,35.82
2018-07-31T05:49:16.828Z,35.63
2018-07-31T05:50:16.704Z,35.82
2018-07-31T05:51:31.564Z,36.41
2018-07-31T05:52:31.597Z,36.51
2018-07-31T05:53:16.977Z,36.41
2018-07-31T05:54:17.006Z,36.13
2018-07-31T05:55:17.048Z,36.05
2018-07-31T05:56:16.818Z,35.97
2018-07-31T05:57:17.115Z,36.41
2018-07-31T05:58:17.146Z,36.6
2018-07-31T05:59:31.847Z,36.88
2018-07-31T06:00:17.214Z,36.83
2018-07-31T06:01:17.258Z,37.34
2018-07-31T06:02:17.290Z,37.6
2018-07-31T06:03:32.061Z,37.64
2018-07-31T06:04:17.369Z,37.78
2018-07-31T06:05:17.400Z,37.64
2018-07-31T06:06:17.536Z,37.62
2018-07-31T06:07:32.141Z,37.81
2018-07-31T06:08:17.253Z,37.6
2018-07-31T06:09:17.286Z,37.56
2018-07-31T06:10:17.581Z,37.63
2018-07-31T06:11:17.762Z,37.88
2018-07-31T06:12:17.406Z,37.62
2018-07-31T06:13:17.694Z,37.75
2018-07-31T06:14:17.475Z,38.06
2018-07-31T06:15:32.432Z,38.59
2018-07-31T06:16:17.810Z,38.6
2018-07-31T06:17:17.583Z,38.81
2018-07-31T06:18:17.877Z,38.96
2018-07-31T06:19:18.020Z,39.06
2018-07-31T06:20:17.954Z,38.93
2018-07-31T06:21:17.988Z,39.1
2018-07-31T06:22:18.029Z,38.56
2018-07-31T06:23:18.068Z,38.84
2018-07-31T06:24:18.103Z,38.79
2018-07-31T06:25:18.145Z,39.06
2018-07-31T06:26:17.923Z,38.87
2018-07-31T06:27:17.969Z,38.99
2018-07-31T06:28:17.998Z,38.66
2018-07-31T06:29:18.037Z,38.9
2018-07-31T06:30:18.337Z,39.17
2018-07-31T06:31:33.036Z,39.14
2018-07-31T06:32:18.155Z,39.41
2018-07-31T06:33:33.121Z,39.26
2018-07-31T06:34:17.972Z,38.86
2018-07-31T06:35:18.526Z,39.01
2018-07-31T06:36:18.564Z,39.14
2018-07-31T06:37:18.626Z,39.17
2018-07-31T06:38:18.389Z,39.06
2018-07-31T06:39:18.426Z,38.68
2018-07-31T06:40:18.777Z,38.98
2018-07-31T06:41:33.170Z,39.29
2018-07-31T06:42:18.797Z,39.57
2018-07-31T06:43:18.837Z,39.64
2018-07-31T06:44:18.883Z,39.64
2018-07-31T06:45:18.910Z,39.57
2018-07-31T06:46:18.949Z,39.69
2018-07-31T06:47:33.655Z,39.22
2018-07-31T06:48:19.025Z,39.41
2018-07-31T06:49:18.925Z,39.64
2018-07-31T06:50:18.850Z,39.57
2018-07-31T06:52:19.187Z,38.91
2018-07-31T06:53:19.221Z,39.11
2018-07-31T06:54:19.003Z,39.35
2018-07-31T06:55:19.041Z,40.03
2018-07-31T06:56:19.338Z,39.79
2018-07-31T06:57:19.381Z,39.57
2018-07-31T06:58:19.421Z,39.81
2018-07-31T07:00:19.497Z,39.57
2018-07-31T07:01:19.536Z,39.75
2018-07-31T07:02:34.244Z,39.32
2018-07-31T07:03:19.617Z,39.55
2018-07-31T07:04:19.649Z,39.88
2018-07-31T07:06:19.734Z,40.22
2018-07-31T07:07:19.773Z,40.16
2018-07-31T07:08:19.554Z,40.32
2018-07-31T07:09:19.999Z,39.69
2018-07-31T07:10:19.641Z,39.59
2018-07-31T07:11:34.595Z,39.7
2018-07-31T07:12:19.968Z,39.52
2018-07-31T07:13:20.012Z,39.7
2018-07-31T07:14:20.052Z,40.29
2018-07-31T07:15:20.139Z,40.74
2018-07-31T07:16:20.130Z,40.92
2018-07-31T07:17:20.162Z,40.69
2018-07-31T07:19:20.242Z,41.26
2018-07-31T07:20:20.027Z,41.23
2018-07-31T07:22:20.361Z,42.05
2018-07-31T07:23:20.414Z,42.11
2018-07-31T07:24:20.442Z,42.28
2018-07-31T07:25:20.484Z,41.9
2018-07-31T07:26:35.190Z,42.12
2018-07-31T07:27:35.228Z,42.12
2018-07-31T07:28:20.603Z,42.31
2018-07-31T07:29:20.643Z,42.47
2018-07-31T07:30:20.428Z,42.62
2018-07-31T07:31:20.720Z,42.83
2018-07-31T07:32:20.507Z,42.96
2018-07-31T07:33:20.799Z,43.05
2018-07-31T07:35:20.880Z,42.8
2018-07-31T07:36:20.410Z,42.47
2018-07-31T07:37:20.703Z,41.99
2018-07-31T07:38:20.746Z,41.44
2018-07-31T07:39:20.527Z,41.36
2018-07-31T07:40:21.241Z,41.2
2018-07-31T07:41:20.870Z,41.47
2018-07-31T07:42:21.165Z,41.76
2018-07-31T07:43:21.204Z,41.84
2018-07-31T07:44:21.247Z,42.05
2018-07-31T07:45:21.281Z,41.73
2018-07-31T07:46:21.323Z,41.86
2018-07-31T07:47:21.359Z,42.31
2018-07-31T07:48:21.517Z,42.12
2018-07-31T07:49:21.442Z,42.18
2018-07-31T07:50:35.889Z,42.74
2018-07-31T07:51:21.523Z,42.61
2018-07-31T07:52:21.562Z,42.58
2018-07-31T07:53:21.600Z,42.68
2018-07-31T07:54:21.590Z,42.87
2018-07-31T07:55:21.684Z,42.91
2018-07-31T07:56:36.389Z,42.43
2018-07-31T07:57:21.763Z,42.08
2018-07-31T07:58:21.806Z,42.2
2018-07-31T07:59:36.508Z,42.01
2018-07-31T08:00:21.883Z,41.54
2018-07-31T08:01:21.665Z,41.9
2018-07-31T08:02:21.962Z,41.36
2018-07-31T08:03:21.487Z,41.21
2018-07-31T08:04:36.719Z,41.29
2018-07-31T08:05:22.081Z,41.1
2018-07-31T08:06:36.826Z,40.77
2018-07-31T08:07:21.904Z,40.38
2018-07-31T08:08:22.204Z,40.87
2018-07-31T08:09:22.239Z,41.58
2018-07-31T08:10:22.286Z,41.84
2018-07-31T08:11:22.064Z,42.02
2018-07-31T08:12:22.360Z,41.9
2018-07-31T08:13:22.404Z,42.08
2018-07-31T08:14:22.443Z,41.94
2018-07-31T08:16:37.183Z,41.82
2018-07-31T08:17:37.221Z,41.9
2018-07-31T08:18:22.597Z,41.82
2018-07-31T08:19:22.634Z,41.73
2018-07-31T08:20:22.832Z,41.6
2018-07-31T08:21:22.714Z,41.78
2018-07-31T08:22:37.518Z,41.91
2018-07-31T08:23:22.863Z,41.74
2018-07-31T08:24:22.834Z,41.2
2018-07-31T08:26:22.917Z,41.36
2018-07-31T08:27:22.951Z,41.01
2018-07-31T08:28:22.989Z,40.46
2018-07-31T08:29:23.048Z,40.48
2018-07-31T08:30:22.816Z,40.41
2018-07-31T08:31:37.775Z,40.43
2018-07-31T08:32:23.153Z,41.11
2018-07-31T08:33:23.188Z,40.87
2018-07-31T08:34:23.343Z,41.07
2018-07-31T08:35:23.262Z,41.04
2018-07-31T08:36:23.044Z,41.25
2018-07-31T08:37:37.751Z,40.91
2018-07-31T08:38:23.378Z,40.34
2018-07-31T08:39:23.424Z,40.03
2018-07-31T08:40:23.461Z,39.7
2018-07-31T08:41:38.185Z,39.81
2018-07-31T08:42:23.539Z,39.6
2018-07-31T08:43:23.317Z,40.13
2018-07-31T08:44:23.354Z,40.5
2018-07-31T08:45:23.391Z,40.8
2018-07-31T08:46:23.686Z,40.53
2018-07-31T08:47:23.727Z,40.91
2018-07-31T08:48:23.508Z,41.3
2018-07-31T08:49:23.811Z,41.13
2018-07-31T08:50:23.847Z,41.54
2018-07-31T08:51:24.041Z,41.52
2018-07-31T08:52:23.917Z,42.04
2018-07-31T08:53:23.960Z,42.25
2018-07-31T08:54:23.994Z,42.59
2018-07-31T08:55:24.037Z,42.46
2018-07-31T08:56:23.822Z,42.76
2018-07-31T08:57:24.123Z,42.71
2018-07-31T08:58:24.147Z,42.31
2018-07-31T08:59:24.184Z,42.37
2018-07-31T09:00:24.227Z,42.35
2018-07-31T09:01:24.265Z,42.4
2018-07-31T09:02:24.312Z,42.05
2018-07-31T09:04:24.379Z,41.51
2018-07-31T09:05:38.821Z,41.6
2018-07-31T09:06:24.508Z,41.55
2018-07-31T09:07:24.238Z,41.82
2018-07-31T09:08:25.023Z,41.51
2018-07-31T09:09:39.236Z,41.86
2018-07-31T09:10:24.606Z,42.23
2018-07-31T09:11:24.645Z,42.12
2018-07-31T09:12:24.692Z,42.08
2018-07-31T09:13:24.719Z,42.25
2018-07-31T09:14:39.429Z,42.35
2018-07-31T09:15:24.544Z,42.06
2018-07-31T09:16:24.577Z,42.21
2018-07-31T09:17:24.942Z,42.61
2018-07-31T09:18:24.915Z,42.81
2018-07-31T09:19:24.976Z,42.91
2018-07-31T09:20:24.732Z,43.05
2018-07-31T09:21:25.027Z,43.17
2018-07-31T09:22:25.327Z,42.74
2018-07-31T09:23:25.099Z,42.92
2018-07-31T09:24:25.298Z,43.05
2018-07-31T09:27:25.250Z,42.2
2018-07-31T09:28:25.288Z,42.2
2018-07-31T09:30:40.149Z,41.99
2018-07-31T09:31:25.403Z,42.28
2018-07-31T09:32:25.445Z,42.21
2018-07-31T09:33:25.221Z,42.31
2018-07-31T09:34:25.520Z,42.78
2018-07-31T09:35:25.663Z,43.14
2018-07-31T09:36:25.654Z,43.22
2018-07-31T09:37:25.627Z,43.08
2018-07-31T09:38:25.665Z,43.27
2018-07-31T09:39:25.717Z,43.15
2018-07-31T09:41:40.450Z,43
2018-07-31T09:42:25.819Z,43.1
2018-07-31T09:43:25.859Z,42.46
2018-07-31T09:44:25.893Z,42.21
2018-07-31T09:45:25.932Z,42.04
2018-07-31T09:46:25.736Z,42.18
2018-07-31T09:47:26.007Z,42.42
2018-07-31T09:48:26.071Z,42.3
2018-07-31T09:49:25.827Z,42.24
2018-07-31T09:50:26.122Z,42.12
2018-07-31T09:51:25.902Z,42.04
2018-07-31T09:52:26.197Z,42.42
2018-07-31T09:53:26.238Z,42.5
2018-07-31T09:54:26.011Z,42.39
2018-07-31T09:55:26.303Z,42.39
2018-07-31T09:56:26.336Z,42.33
2018-07-31T09:57:41.042Z,42.3
2018-07-31T09:58:26.158Z,42.43
2018-07-31T09:59:26.205Z,42.91
2018-07-31T10:01:26.269Z,43.23
2018-07-31T10:02:26.561Z,43.19
2018-07-31T10:03:26.602Z,43.02
2018-07-31T10:04:26.643Z,43.28
2018-07-31T10:05:26.876Z,43.5
2018-07-31T10:06:26.455Z,43.45
2018-07-31T10:07:41.416Z,43.59
2018-07-31T10:08:26.628Z,43.46
2018-07-31T10:09:26.563Z,43.65
2018-07-31T10:10:26.857Z,43.38
2018-07-31T10:11:26.898Z,43.07
2018-07-31T10:13:26.978Z,43.08
2018-07-31T10:15:26.787Z,42.76
2018-07-31T10:16:26.827Z,42.66
2018-07-31T10:17:26.859Z,42.89
2018-07-31T10:18:27.314Z,43.14
2018-07-31T10:19:26.942Z,42.77
2018-07-31T10:20:41.893Z,42.58
2018-07-31T10:21:41.927Z,42.62
2018-07-31T10:22:41.963Z,42.81
2018-07-31T10:23:26.820Z,42.71
2018-07-31T10:24:26.872Z,42.96
2018-07-31T10:25:27.152Z,42.81
2018-07-31T10:26:27.446Z,42.77
2018-07-31T10:28:27.522Z,42.89
2018-07-31T10:29:27.555Z,42.91
2018-07-31T10:30:27.595Z,42.92
2018-07-31T10:31:27.636Z,42.4
2018-07-31T10:32:27.665Z,42.12
2018-07-31T10:33:27.705Z,41.69
2018-07-31T10:35:42.440Z,41.2
2018-07-31T10:36:27.814Z,41.3
2018-07-31T10:37:27.931Z,40.79
2018-07-31T10:38:27.883Z,40.7
2018-07-31T10:39:27.660Z,40.8
2018-07-31T10:40:27.960Z,40.8
2018-07-31T10:41:27.989Z,40.83
2018-07-31T10:42:28.024Z,40.58
2018-07-31T10:43:28.167Z,40.26
2018-07-31T10:44:42.762Z,39.94
2018-07-31T10:45:28.136Z,39.59
2018-07-31T10:46:28.174Z,39.43
2018-07-31T10:47:28.254Z,39.1
2018-07-31T10:48:27.987Z,38.91
2018-07-31T10:49:28.022Z,38.83
2018-07-31T10:50:28.330Z,38.84
2018-07-31T10:51:28.093Z,38.98
2018-07-31T10:52:28.128Z,39.21
2018-07-31T10:53:28.429Z,39.1
2018-07-31T10:54:28.554Z,39.01
2018-07-31T10:55:27.978Z,39.11
2018-07-31T10:56:28.273Z,39.26
2018-07-31T10:57:28.577Z,38.57
2018-07-31T10:58:28.495Z,38.49
2018-07-31T10:59:28.400Z,38.57
2018-07-31T11:00:43.077Z,38.23
2018-07-31T11:01:28.471Z,38.38
2018-07-31T11:02:28.740Z,38.4
2018-07-31T11:03:28.790Z,38.35
2018-07-31T11:04:28.562Z,38.2
2018-07-31T11:05:28.846Z,38.3
2018-07-31T11:06:28.750Z,38.46
2018-07-31T11:07:28.916Z,38.54
2018-07-31T11:08:43.619Z,38.71
2018-07-31T11:09:28.770Z,38.61
2018-07-31T11:10:29.240Z,38.65
2018-07-31T11:11:28.797Z,38.74
2018-07-31T11:12:29.093Z,38.76
2018-07-31T11:13:28.873Z,38.63
2018-07-31T11:14:29.167Z,38.74
2018-07-31T11:15:28.937Z,38.72
2018-07-31T11:16:43.892Z,38.79
2018-07-31T11:18:29.044Z,39.09
2018-07-31T11:19:29.085Z,38.81
2018-07-31T11:20:29.110Z,38.84
2018-07-31T11:21:29.402Z,38.83
2018-07-31T11:22:29.180Z,38.9
2018-07-31T11:23:29.216Z,39.1
2018-07-31T11:24:28.991Z,38.93
2018-07-31T11:25:44.205Z,38.84
2018-07-31T11:26:29.316Z,38.79
2018-07-31T11:27:44.289Z,38.54
2018-07-31T11:28:29.385Z,38.65
2018-07-31T11:29:29.420Z,38.68
2018-07-31T11:30:29.459Z,38.65
2018-07-31T11:31:29.758Z,38.53
2018-07-31T11:32:44.445Z,38.78
2018-07-31T11:33:29.818Z,38.75
2018-07-31T11:34:29.593Z,38.52
2018-07-31T11:35:29.889Z,38.22
2018-07-31T11:36:29.665Z,38.19
2018-07-31T11:37:29.956Z,38.4
2018-07-31T11:38:29.852Z,38.42
2018-07-31T11:39:29.768Z,38.3
2018-07-31T11:40:30.060Z,38.28
2018-07-31T11:41:30.093Z,38.35
2018-07-31T11:42:44.791Z,38.5
2018-07-31T11:43:44.564Z,38.41
2018-07-31T11:44:30.191Z,38.22
2018-07-31T11:45:29.714Z,38.11
2018-07-31T11:46:30.263Z,38.01
2018-07-31T11:47:44.959Z,38.38
2018-07-31T11:48:30.332Z,38.57
2018-07-31T11:49:30.363Z,38.65
2018-07-31T11:51:30.195Z,38.5
2018-07-31T11:52:30.462Z,38.53
2018-07-31T11:53:30.240Z,38.11
2018-07-31T11:54:30.021Z,38.03
2018-07-31T11:55:30.311Z,38.11
2018-07-31T11:56:30.598Z,38.2
2018-07-31T11:57:45.297Z,38.3
2018-07-31T11:58:30.410Z,38.56
2018-07-31T11:59:30.701Z,38.6
2018-07-31T12:00:30.738Z,38.74
2018-07-31T12:01:30.769Z,38.84
2018-07-31T12:02:30.814Z,38.83
2018-07-31T12:03:30.843Z,38.63
2018-07-31T12:04:30.872Z,38.49
2018-07-31T12:05:30.652Z,38.22
2018-07-31T12:06:30.941Z,38.3
2018-07-31T12:07:30.974Z,38.42
2018-07-31T12:08:31.007Z,38.18
2018-07-31T12:09:30.785Z,38.22
2018-07-31T12:10:31.128Z,38.25
2018-07-31T12:11:31.281Z,38.11
2018-07-31T12:12:45.804Z,38.22
2018-07-31T12:13:31.177Z,38.32
2018-07-31T12:14:30.951Z,38.59
2018-07-31T12:15:31.245Z,38.74
2018-07-31T12:16:31.278Z,38.71
2018-07-31T12:17:31.311Z,38.61
2018-07-31T12:18:31.086Z,38.26
2018-07-31T12:19:46.041Z,37.84
2018-07-31T12:20:31.418Z,37.75
2018-07-31T12:21:31.450Z,37.66
2018-07-31T12:22:31.482Z,37.64
2018-07-31T12:23:31.513Z,37.62
2018-07-31T12:24:31.287Z,37.89
2018-07-31T12:25:31.583Z,37.91
2018-07-31T12:26:31.614Z,37.98
2018-07-31T12:27:46.312Z,37.84
2018-07-31T12:28:46.347Z,37.81
2018-07-31T12:29:31.457Z,37.84
2018-07-31T12:30:46.409Z,37.7
2018-07-31T12:31:46.444Z,37.82
2018-07-31T12:32:31.819Z,37.97
2018-07-31T12:33:31.851Z,38.18
2018-07-31T12:35:46.580Z,38.18
2018-07-31T12:36:31.954Z,38.2
2018-07-31T12:37:31.979Z,38.22
2018-07-31T12:38:31.801Z,38.22
2018-07-31T12:39:32.050Z,38.37
2018-07-31T12:40:31.826Z,38.25
2018-07-31T12:41:32.116Z,38.19
2018-07-31T12:42:32.147Z,37.98
2018-07-31T12:43:32.184Z,38.01
2018-07-31T12:44:31.961Z,37.91
2018-07-31T12:45:46.914Z,37.96
2018-07-31T12:46:32.286Z,37.85
2018-07-31T12:47:32.106Z,37.89
2018-07-31T12:48:32.382Z,37.74
2018-07-31T12:49:32.386Z,37.6
2018-07-31T12:50:32.419Z,37.62
2018-07-31T12:51:47.115Z,37.63
2018-07-31T12:52:32.486Z,37.7
2018-07-31T12:54:32.553Z,37.86
2018-07-31T12:56:32.617Z,37.84
2018-07-31T12:57:32.655Z,37.86
2018-07-31T12:58:32.683Z,37.96
2018-07-31T12:59:32.718Z,37.7
2018-07-31T13:00:32.754Z,37.56
2018-07-31T13:01:32.824Z,37.17
2018-07-31T13:02:32.819Z,37.02
2018-07-31T13:03:32.895Z,36.95
2018-07-31T13:04:32.888Z,36.95
2018-07-31T13:05:32.918Z,36.9
2018-07-31T13:06:32.978Z,36.91
2018-07-31T13:07:47.650Z,36.9
2018-07-31T13:08:33.022Z,36.88
2018-07-31T13:09:32.793Z,36.98
2018-07-31T13:10:33.088Z,37.2
2018-07-31T13:11:32.858Z,37.22
2018-07-31T13:12:32.900Z,37.18
2018-07-31T13:13:33.183Z,37.1
2018-07-31T13:14:33.222Z,36.95
2018-07-31T13:15:33.248Z,36.94
2018-07-31T13:16:47.947Z,37.05
2018-07-31T13:17:33.058Z,36.98
2018-07-31T13:18:33.091Z,37.05
2018-07-31T13:19:33.384Z,36.93
2018-07-31T13:20:33.424Z,36.93
2018-07-31T13:21:33.449Z,37.03
2018-07-31T13:22:48.263Z,37.15
2018-07-31T13:23:33.257Z,36.99
2018-07-31T13:24:33.544Z,36.98
2018-07-31T13:25:33.325Z,37.09
2018-07-31T13:26:33.616Z,37.21
2018-07-31T13:27:33.654Z,37.02
2018-07-31T13:28:33.727Z,37.15
2018-07-31T13:29:33.713Z,37.2
2018-07-31T13:30:48.473Z,37.09
2018-07-31T13:31:33.523Z,37.06
2018-07-31T13:32:33.554Z,37.1
2018-07-31T13:33:33.588Z,36.95
2018-07-31T13:34:33.879Z,36.88
2018-07-31T13:35:33.651Z,36.87
2018-07-31T13:36:33.950Z,36.76
2018-07-31T13:37:33.976Z,36.69
2018-07-31T13:38:34.013Z,36.75
2018-07-31T13:39:34.051Z,36.69
2018-07-31T13:40:34.074Z,36.83
2018-07-31T13:41:34.110Z,36.93
2018-07-31T13:43:34.437Z,36.98